sensor_id;sensor_type;location;lat;lon;timestamp;pressure;altitude;pressure_sealevel;temperature;humidity
51526;BME280;37611;51.794;21.590;2022-11-20T00:17:04;99926.08;;;-5.88;97.44
51526;BME280;37611;51.794;21.590;2022-11-20T00:26:25;99926.23;;;-5.93;97.23
51526;BME280;37611;51.794;21.590;2022-11-20T00:30:28;99924.69;;;-5.87;97.40
51526;BME280;37611;51.794;21.590;2022-11-20T00:34:30;99920.69;;;-5.85;97.18
51526;BME280;37611;51.794;21.590;2022-11-20T00:38:33;99923.54;;;-5.84;97.16
51526;BME280;37611;51.794;21.590;2022-11-20T00:42:35;99925.00;;;-5.81;96.91
51526;BME280;37611;51.794;21.590;2022-11-20T00:46:36;99921.27;;;-5.82;96.61
51526;BME280;37611;51.794;21.590;2022-11-20T00:50:41;99921.59;;;-5.81;96.74
51526;BME280;37611;51.794;21.590;2022-11-20T00:54:43;99923.80;;;-5.81;96.26
51526;BME280;37611;51.794;21.590;2022-11-20T00:58:48;99919.11;;;-5.89;96.11
51526;BME280;37611;51.794;21.590;2022-11-20T01:02:51;99910.27;;;-5.99;95.88
51526;BME280;37611;51.794;21.590;2022-11-20T01:06:53;99906.77;;;-6.07;95.73
51526;BME280;37611;51.794;21.590;2022-11-20T01:11:00;99904.10;;;-6.30;95.33
51526;BME280;37611;51.794;21.590;2022-11-20T01:15:03;99906.03;;;-6.53;95.38
51526;BME280;37611;51.794;21.590;2022-11-20T01:19:09;99903.48;;;-6.71;95.66
51526;BME280;37611;51.794;21.590;2022-11-20T01:23:12;99904.44;;;-6.85;95.76
51526;BME280;37611;51.794;21.590;2022-11-20T05:01:14;99798.55;;;-7.13;95.89
51526;BME280;37611;51.794;21.590;2022-11-20T05:05:16;99792.40;;;-7.06;96.30
51526;BME280;37611;51.794;21.590;2022-11-20T05:09:18;99793.32;;;-6.98;96.65
51526;BME280;37611;51.794;21.590;2022-11-20T05:13:20;99787.38;;;-6.87;96.93
51526;BME280;37611;51.794;21.590;2022-11-20T05:17:23;99788.41;;;-6.77;97.02
51526;BME280;37611;51.794;21.590;2022-11-20T05:21:25;99791.36;;;-6.68;97.09
51526;BME280;37611;51.794;21.590;2022-11-20T05:25:27;99791.90;;;-6.63;96.98
51526;BME280;37611;51.794;21.590;2022-11-20T05:29:29;99793.34;;;-6.55;97.11
51526;BME280;37611;51.794;21.590;2022-11-20T05:33:31;99788.38;;;-6.44;96.98
51526;BME280;37611;51.794;21.590;2022-11-20T05:37:35;99783.30;;;-6.35;96.94
51526;BME280;37611;51.794;21.590;2022-11-20T05:41:37;99787.62;;;-6.36;96.57
51526;BME280;37611;51.794;21.590;2022-11-20T05:45:38;99791.44;;;-6.38;96.57
51526;BME280;37611;51.794;21.590;2022-11-20T05:49:40;99785.80;;;-6.38;96.57
51526;BME280;37611;51.794;21.590;2022-11-20T05:53:43;99782.38;;;-6.38;96.57
51526;BME280;37611;51.794;21.590;2022-11-20T05:57:45;99784.44;;;-6.38;96.59
51526;BME280;37611;51.794;21.590;2022-11-20T06:01:47;99784.73;;;-6.36;96.61
51526;BME280;37611;51.794;21.590;2022-11-20T06:05:48;99782.63;;;-6.35;96.71
51526;BME280;37611;51.794;21.590;2022-11-20T06:40:32;99773.44;;;-6.26;97.56
51526;BME280;37611;51.794;21.590;2022-11-20T06:44:34;99768.86;;;-6.11;97.82
51526;BME280;37611;51.794;21.590;2022-11-20T06:48:35;99774.55;;;-5.98;97.76
51526;BME280;37611;51.794;21.590;2022-11-20T06:52:37;99776.46;;;-5.86;97.70
51526;BME280;37611;51.794;21.590;2022-11-20T06:56:39;99769.85;;;-5.67;97.64
51526;BME280;37611;51.794;21.590;2022-11-20T07:00:41;99763.48;;;-5.57;97.17
51526;BME280;37611;51.794;21.590;2022-11-20T07:04:43;99759.66;;;-5.51;97.06
51526;BME280;37611;51.794;21.590;2022-11-20T07:08:45;99765.09;;;-5.40;97.15
51526;BME280;37611;51.794;21.590;2022-11-20T07:12:52;99761.96;;;-5.34;97.59
51526;BME280;37611;51.794;21.590;2022-11-20T07:16:55;99758.11;;;-5.14;98.58
51526;BME280;37611;51.794;21.590;2022-11-20T07:21:00;99756.15;;;-4.90;98.66
51526;BME280;37611;51.794;21.590;2022-11-20T07:25:03;99759.20;;;-4.60;98.63
51526;BME280;37611;51.794;21.590;2022-11-20T07:29:05;99755.58;;;-4.30;98.44
51526;BME280;37611;51.794;21.590;2022-11-20T07:33:07;99756.20;;;-4.05;98.25
51526;BME280;37611;51.794;21.590;2022-11-20T07:37:09;99746.25;;;-3.88;97.91
51526;BME280;37611;51.794;21.590;2022-11-20T07:41:11;99742.60;;;-3.68;97.78
51526;BME280;37611;51.794;21.590;2022-11-20T07:45:13;99737.20;;;-3.43;97.57
51526;BME280;37611;51.794;21.590;2022-11-20T07:49:15;99739.61;;;-3.21;96.81
51526;BME280;37611;51.794;21.590;2022-11-20T07:53:16;99739.49;;;-2.97;97.15
51526;BME280;37611;51.794;21.590;2022-11-20T07:57:22;99739.05;;;-2.66;97.19
51526;BME280;37611;51.794;21.590;2022-11-20T08:01:23;99738.16;;;-2.38;97.53
51526;BME280;37611;51.794;21.590;2022-11-20T08:05:25;99741.54;;;-2.23;97.15
51526;BME280;37611;51.794;21.590;2022-11-20T08:09:27;99743.44;;;-2.03;97.72
51526;BME280;37611;51.794;21.590;2022-11-20T08:13:30;99740.81;;;-1.86;97.01
51526;BME280;37611;51.794;21.590;2022-11-20T08:17:50;99740.31;;;-1.73;96.07
51526;BME280;37611;51.794;21.590;2022-11-20T08:21:52;99741.26;;;-1.55;95.75
51526;BME280;37611;51.794;21.590;2022-11-20T08:25:54;99745.86;;;-1.51;94.83
51526;BME280;37611;51.794;21.590;2022-11-20T08:29:56;99743.67;;;-1.46;95.55
51526;BME280;37611;51.794;21.590;2022-11-20T08:33:58;99736.30;;;-1.33;94.41
51526;BME280;37611;51.794;21.590;2022-11-20T08:37:59;99734.91;;;-1.27;94.79
51526;BME280;37611;51.794;21.590;2022-11-20T08:42:01;99734.97;;;-1.28;93.59
51526;BME280;37611;51.794;21.590;2022-11-20T08:46:03;99735.27;;;-1.30;94.26
51526;BME280;37611;51.794;21.590;2022-11-20T08:50:06;99729.05;;;-1.19;95.50
51526;BME280;37611;51.794;21.590;2022-11-20T08:54:08;99723.17;;;-1.13;95.01
51526;BME280;37611;51.794;21.590;2022-11-20T08:58:09;99720.14;;;-0.95;95.13
51526;BME280;37611;51.794;21.590;2022-11-20T09:02:11;99720.88;;;-1.00;93.22
51526;BME280;37611;51.794;21.590;2022-11-20T09:06:14;99713.00;;;-1.03;93.41
51526;BME280;37611;51.794;21.590;2022-11-20T09:10:16;99708.25;;;-0.98;93.09
51526;BME280;37611;51.794;21.590;2022-11-20T09:14:17;99702.18;;;-1.03;92.39
51526;BME280;37611;51.794;21.590;2022-11-20T09:18:19;99691.60;;;-1.08;92.71
51526;BME280;37611;51.794;21.590;2022-11-20T09:22:21;99690.65;;;-1.09;92.66
51526;BME280;37611;51.794;21.590;2022-11-20T09:26:23;99689.35;;;-1.01;93.33
51526;BME280;37611;51.794;21.590;2022-11-20T09:30:25;99692.64;;;-0.99;92.56
51526;BME280;37611;51.794;21.590;2022-11-20T09:34:27;99693.49;;;-0.99;92.64
51526;BME280;37611;51.794;21.590;2022-11-20T09:38:29;99686.04;;;-1.00;92.39
51526;BME280;37611;51.794;21.590;2022-11-20T09:47:11;99677.84;;;-1.04;92.36
51526;BME280;37611;51.794;21.590;2022-11-20T09:51:33;99675.66;;;-1.08;92.81
51526;BME280;37611;51.794;21.590;2022-11-20T09:55:38;99672.58;;;-0.93;93.14
51526;BME280;37611;51.794;21.590;2022-11-20T09:59:46;99663.65;;;-0.78;93.70
51526;BME280;37611;51.794;21.590;2022-11-20T10:12:23;99651.00;;;-0.15;92.36
51526;BME280;37611;51.794;21.590;2022-11-20T10:29:16;99642.33;;;0.22;91.90
51526;BME280;37611;51.794;21.590;2022-11-20T10:33:24;99647.73;;;0.40;91.35
51526;BME280;37611;51.794;21.590;2022-11-20T10:37:27;99640.72;;;0.67;91.57
51526;BME280;37611;51.794;21.590;2022-11-20T10:41:40;99632.61;;;0.91;91.27
51526;BME280;37611;51.794;21.590;2022-11-20T10:46:03;99633.00;;;1.01;90.78
51526;BME280;37611;51.794;21.590;2022-11-20T10:50:11;99631.59;;;1.07;89.89
51526;BME280;37611;51.794;21.590;2022-11-20T11:03:30;99630.73;;;1.06;88.86
51526;BME280;37611;51.794;21.590;2022-11-20T11:07:38;99628.57;;;1.15;88.30
51526;BME280;37611;51.794;21.590;2022-11-20T11:11:40;99630.14;;;1.10;87.86
51526;BME280;37611;51.794;21.590;2022-11-20T11:15:42;99628.15;;;1.04;88.05
51526;BME280;37611;51.794;21.590;2022-11-20T11:19:44;99631.27;;;1.03;87.80
51526;BME280;37611;51.794;21.590;2022-11-20T11:23:46;99628.90;;;1.10;88.21
51526;BME280;37611;51.794;21.590;2022-11-20T11:27:49;99626.45;;;1.24;88.11
51526;BME280;37611;51.794;21.590;2022-11-20T11:32:03;99621.90;;;1.33;88.13
51526;BME280;37611;51.794;21.590;2022-11-20T11:36:19;99613.01;;;1.29;87.74
51526;BME280;37611;51.794;21.590;2022-11-20T11:40:23;99608.76;;;1.15;87.10
51526;BME280;37611;51.794;21.590;2022-11-20T11:44:30;99615.27;;;0.76;87.00
51526;BME280;37611;51.794;21.590;2022-11-20T11:49:11;99609.70;;;0.40;87.97
51526;BME280;37611;51.794;21.590;2022-11-20T11:53:20;99604.95;;;0.03;88.55
51526;BME280;37611;51.794;21.590;2022-11-20T12:01:40;99600.02;;;-0.40;90.35
51526;BME280;37611;51.794;21.590;2022-11-20T12:06:14;99596.60;;;-0.58;90.58
51526;BME280;37611;51.794;21.590;2022-11-20T12:10:23;99597.86;;;-0.70;90.79
51526;BME280;37611;51.794;21.590;2022-11-20T12:14:34;99593.15;;;-0.78;90.58
51526;BME280;37611;51.794;21.590;2022-11-20T12:18:37;99596.55;;;-0.98;91.19
51526;BME280;37611;51.794;21.590;2022-11-20T12:35:32;99564.16;;;-1.09;92.87
51526;BME280;37611;51.794;21.590;2022-11-20T12:39:58;99557.77;;;-1.14;93.21
51526;BME280;37611;51.794;21.590;2022-11-20T12:52:51;99570.38;;;-1.55;95.08
51526;BME280;37611;51.794;21.590;2022-11-20T13:10:02;99546.16;;;-1.76;96.10
51526;BME280;37611;51.794;21.590;2022-11-20T13:14:42;99547.73;;;-1.79;95.94
51526;BME280;37611;51.794;21.590;2022-11-20T13:18:48;99544.45;;;-1.79;96.71
51526;BME280;37611;51.794;21.590;2022-11-20T13:22:59;99544.77;;;-1.72;96.97
51526;BME280;37611;51.794;21.590;2022-11-20T13:31:30;99544.42;;;-1.69;97.05
51526;BME280;37611;51.794;21.590;2022-11-20T13:35:35;99543.77;;;-1.82;97.51
51526;BME280;37611;51.794;21.590;2022-11-20T13:39:37;99544.35;;;-1.86;97.49
51526;BME280;37611;51.794;21.590;2022-11-20T13:43:42;99549.02;;;-1.93;97.28
51526;BME280;37611;51.794;21.590;2022-11-20T13:47:50;99551.93;;;-2.00;97.76
51526;BME280;37611;51.794;21.590;2022-11-20T13:56:34;99549.85;;;-2.05;98.35
51526;BME280;37611;51.794;21.590;2022-11-20T14:00:45;99546.71;;;-2.14;98.40
51526;BME280;37611;51.794;21.590;2022-11-20T14:04:51;99543.27;;;-2.20;98.80
51526;BME280;37611;51.794;21.590;2022-11-20T14:08:55;99545.23;;;-2.18;98.89
51526;BME280;37611;51.794;21.590;2022-11-20T14:12:57;99540.27;;;-2.12;98.72
51526;BME280;37611;51.794;21.590;2022-11-20T14:17:18;99526.62;;;-2.07;98.46
51526;BME280;37611;51.794;21.590;2022-11-20T14:21:26;99519.15;;;-2.11;98.45
51526;BME280;37611;51.794;21.590;2022-11-20T14:25:28;99521.92;;;-2.15;98.46
51526;BME280;37611;51.794;21.590;2022-11-20T14:29:36;99524.45;;;-2.17;98.61
51526;BME280;37611;51.794;21.590;2022-11-20T14:33:38;99526.04;;;-2.22;98.93
51526;BME280;37611;51.794;21.590;2022-11-20T14:37:41;99528.67;;;-2.23;99.10
51526;BME280;37611;51.794;21.590;2022-11-20T14:41:50;99532.05;;;-2.18;99.36
51526;BME280;37611;51.794;21.590;2022-11-20T14:45:59;99526.89;;;-2.09;99.16
51526;BME280;37611;51.794;21.590;2022-11-20T14:50:01;99517.50;;;-2.10;99.06
51526;BME280;37611;51.794;21.590;2022-11-20T14:54:18;99511.66;;;-2.13;99.16
51526;BME280;37611;51.794;21.590;2022-11-20T14:58:25;99510.14;;;-2.16;99.11
51526;BME280;37611;51.794;21.590;2022-11-20T15:02:29;99501.48;;;-2.14;99.30
51526;BME280;37611;51.794;21.590;2022-11-20T15:06:31;99496.01;;;-2.12;99.46
51526;BME280;37611;51.794;21.590;2022-11-20T15:10:33;99492.36;;;-2.08;99.41
51526;BME280;37611;51.794;21.590;2022-11-20T15:14:36;99489.02;;;-2.06;99.35
51526;BME280;37611;51.794;21.590;2022-11-20T15:18:40;99481.08;;;-2.09;99.27
51526;BME280;37611;51.794;21.590;2022-11-20T15:22:45;99476.76;;;-2.14;99.43
51526;BME280;37611;51.794;21.590;2022-11-20T15:26:47;99474.46;;;-2.19;99.29
51526;BME280;37611;51.794;21.590;2022-11-20T15:30:49;99468.15;;;-2.20;99.46
51526;BME280;37611;51.794;21.590;2022-11-20T15:34:51;99462.95;;;-2.19;99.59
51526;BME280;37611;51.794;21.590;2022-11-20T15:38:53;99457.45;;;-2.19;99.72
51526;BME280;37611;51.794;21.590;2022-11-20T15:42:55;99450.98;;;-2.19;99.42
51526;BME280;37611;51.794;21.590;2022-11-20T15:47:07;99457.77;;;-2.22;99.27
51526;BME280;37611;51.794;21.590;2022-11-20T15:55:12;99450.44;;;-2.31;99.24
51526;BME280;37611;51.794;21.590;2022-11-20T15:59:14;99448.61;;;-2.35;99.44
51526;BME280;37611;51.794;21.590;2022-11-20T16:03:17;99446.90;;;-2.36;99.62
51526;BME280;37611;51.794;21.590;2022-11-20T16:07:19;99446.50;;;-2.38;99.62
51526;BME280;37611;51.794;21.590;2022-11-20T16:11:21;99448.70;;;-2.37;99.53
51526;BME280;37611;51.794;21.590;2022-11-20T16:15:23;99455.13;;;-2.45;99.38
51526;BME280;37611;51.794;21.590;2022-11-20T16:19:43;99456.47;;;-2.54;99.31
51526;BME280;37611;51.794;21.590;2022-11-20T16:23:45;99457.64;;;-2.63;99.05
51526;BME280;37611;51.794;21.590;2022-11-20T16:27:47;99454.42;;;-2.73;98.91
51526;BME280;37611;51.794;21.590;2022-11-20T16:31:49;99458.31;;;-2.85;98.94
51526;BME280;37611;51.794;21.590;2022-11-20T16:35:51;99458.09;;;-2.94;99.34
51526;BME280;37611;51.794;21.590;2022-11-20T16:39:53;99456.34;;;-3.00;99.65
51526;BME280;37611;51.794;21.590;2022-11-20T16:43:56;99459.93;;;-3.00;99.79
51526;BME280;37611;51.794;21.590;2022-11-20T16:47:59;99459.73;;;-3.06;99.79
51526;BME280;37611;51.794;21.590;2022-11-20T16:52:00;99459.26;;;-3.13;99.85
51526;BME280;37611;51.794;21.590;2022-11-20T16:56:14;99454.48;;;-3.24;99.89
51526;BME280;37611;51.794;21.590;2022-11-20T17:00:19;99447.95;;;-3.33;100.00
51526;BME280;37611;51.794;21.590;2022-11-20T17:04:21;99439.33;;;-3.39;100.00
51526;BME280;37611;51.794;21.590;2022-11-20T17:08:23;99433.57;;;-3.43;100.00
51526;BME280;37611;51.794;21.590;2022-11-20T17:12:25;99430.25;;;-3.49;100.00
51526;BME280;37611;51.794;21.590;2022-11-20T17:16:27;99425.36;;;-3.54;100.00
51526;BME280;37611;51.794;21.590;2022-11-20T17:20:29;99426.20;;;-3.57;100.00
51526;BME280;37611;51.794;21.590;2022-11-20T17:24:32;99421.11;;;-3.57;100.00
51526;BME280;37611;51.794;21.590;2022-11-20T17:28:35;99427.30;;;-3.55;100.00
51526;BME280;37611;51.794;21.590;2022-11-20T17:32:37;99427.94;;;-3.51;100.00
51526;BME280;37611;51.794;21.590;2022-11-20T17:36:40;99429.02;;;-3.55;100.00
51526;BME280;37611;51.794;21.590;2022-11-20T17:40:45;99429.08;;;-3.60;100.00
51526;BME280;37611;51.794;21.590;2022-11-20T17:44:47;99425.25;;;-3.62;100.00
51526;BME280;37611;51.794;21.590;2022-11-20T17:48:49;99418.42;;;-3.65;100.00
51526;BME280;37611;51.794;21.590;2022-11-20T17:52:51;99415.26;;;-3.63;100.00
51526;BME280;37611;51.794;21.590;2022-11-20T17:56:53;99410.63;;;-3.60;100.00
51526;BME280;37611;51.794;21.590;2022-11-20T18:01:14;99404.27;;;-3.56;100.00
51526;BME280;37611;51.794;21.590;2022-11-20T18:05:16;99398.14;;;-3.50;100.00
51526;BME280;37611;51.794;21.590;2022-11-20T18:09:18;99389.27;;;-3.51;100.00
51526;BME280;37611;51.794;21.590;2022-11-20T18:13:20;99374.65;;;-3.59;100.00
51526;BME280;37611;51.794;21.590;2022-11-20T18:17:41;99371.67;;;-3.75;99.90
51526;BME280;37611;51.794;21.590;2022-11-20T18:21:43;99373.24;;;-3.89;100.00
51526;BME280;37611;51.794;21.590;2022-11-20T18:25:45;99374.98;;;-4.03;100.00
51526;BME280;37611;51.794;21.590;2022-11-20T18:29:48;99365.64;;;-4.11;100.00
51526;BME280;37611;51.794;21.590;2022-11-20T18:33:52;99368.45;;;-4.09;100.00
51526;BME280;37611;51.794;21.590;2022-11-20T18:37:55;99363.30;;;-4.02;100.00
51526;BME280;37611;51.794;21.590;2022-11-20T18:41:57;99359.95;;;-3.93;100.00
51526;BME280;37611;51.794;21.590;2022-11-20T18:46:18;99356.30;;;-3.85;100.00
51526;BME280;37611;51.794;21.590;2022-11-20T18:50:22;99357.58;;;-3.87;100.00
51526;BME280;37611;51.794;21.590;2022-11-20T18:54:24;99355.66;;;-3.86;100.00
51526;BME280;37611;51.794;21.590;2022-11-20T18:58:27;99353.64;;;-3.90;100.00
51526;BME280;37611;51.794;21.590;2022-11-20T19:02:29;99346.03;;;-4.03;100.00
51526;BME280;37611;51.794;21.590;2022-11-20T19:06:31;99339.13;;;-4.15;100.00
51526;BME280;37611;51.794;21.590;2022-11-20T19:10:33;99329.91;;;-4.22;100.00
51526;BME280;37611;51.794;21.590;2022-11-20T19:14:35;99329.23;;;-4.32;100.00
51526;BME280;37611;51.794;21.590;2022-11-20T19:18:36;99321.42;;;-4.41;100.00
51526;BME280;37611;51.794;21.590;2022-11-20T19:22:38;99318.34;;;-4.44;100.00
51526;BME280;37611;51.794;21.590;2022-11-20T19:26:40;99314.52;;;-4.39;100.00
51526;BME280;37611;51.794;21.590;2022-11-20T19:30:42;99309.77;;;-4.33;100.00
51526;BME280;37611;51.794;21.590;2022-11-20T19:34:43;99308.52;;;-4.21;100.00
51526;BME280;37611;51.794;21.590;2022-11-20T19:38:47;99310.98;;;-4.09;100.00
51526;BME280;37611;51.794;21.590;2022-11-20T19:42:50;99307.02;;;-3.99;100.00
51526;BME280;37611;51.794;21.590;2022-11-20T19:46:52;99309.08;;;-3.88;100.00
51526;BME280;37611;51.794;21.590;2022-11-20T19:50:54;99304.67;;;-3.79;100.00
51526;BME280;37611;51.794;21.590;2022-11-20T19:54:56;99303.27;;;-3.69;100.00
51526;BME280;37611;51.794;21.590;2022-11-20T19:58:58;99303.33;;;-3.57;100.00
51526;BME280;37611;51.794;21.590;2022-11-20T20:03:00;99309.09;;;-3.39;100.00
51526;BME280;37611;51.794;21.590;2022-11-20T20:07:01;99317.33;;;-3.24;100.00
51526;BME280;37611;51.794;21.590;2022-11-20T20:11:18;99317.05;;;-3.09;100.00
51526;BME280;37611;51.794;21.590;2022-11-20T20:15:21;99318.66;;;-2.98;100.00
51526;BME280;37611;51.794;21.590;2022-11-20T20:19:22;99325.48;;;-2.90;100.00
51526;BME280;37611;51.794;21.590;2022-11-20T20:23:24;99327.32;;;-2.89;100.00
51526;BME280;37611;51.794;21.590;2022-11-20T20:27:26;99325.17;;;-2.88;100.00
51526;BME280;37611;51.794;21.590;2022-11-20T20:31:31;99316.46;;;-2.85;100.00
51526;BME280;37611;51.794;21.590;2022-11-20T20:35:39;99309.20;;;-2.81;100.00
51526;BME280;37611;51.794;21.590;2022-11-20T20:39:42;99306.48;;;-2.78;100.00
51526;BME280;37611;51.794;21.590;2022-11-20T20:43:43;99303.64;;;-2.74;100.00
51526;BME280;37611;51.794;21.590;2022-11-20T20:48:04;99297.21;;;-2.76;100.00
51526;BME280;37611;51.794;21.590;2022-11-20T20:52:06;99295.28;;;-2.80;100.00
51526;BME280;37611;51.794;21.590;2022-11-20T20:56:08;99299.60;;;-2.87;100.00
51526;BME280;37611;51.794;21.590;2022-11-20T21:00:11;99303.23;;;-2.88;100.00
51526;BME280;37611;51.794;21.590;2022-11-20T21:04:13;99303.38;;;-2.84;100.00
51526;BME280;37611;51.794;21.590;2022-11-20T21:08:15;99304.85;;;-2.80;100.00
51526;BME280;37611;51.794;21.590;2022-11-20T21:12:23;99310.59;;;-2.75;100.00
51526;BME280;37611;51.794;21.590;2022-11-20T21:16:25;99312.35;;;-2.76;100.00
51526;BME280;37611;51.794;21.590;2022-11-20T21:20:27;99306.02;;;-2.82;100.00
51526;BME280;37611;51.794;21.590;2022-11-20T21:24:48;99314.90;;;-2.88;100.00
51526;BME280;37611;51.794;21.590;2022-11-20T21:28:49;99309.96;;;-2.95;100.00
51526;BME280;37611;51.794;21.590;2022-11-20T21:32:51;99315.15;;;-3.02;100.00
51526;BME280;37611;51.794;21.590;2022-11-20T21:36:53;99318.70;;;-3.05;100.00
51526;BME280;37611;51.794;21.590;2022-11-20T21:40:59;99315.09;;;-3.08;100.00
51526;BME280;37611;51.794;21.590;2022-11-20T21:45:01;99308.59;;;-3.08;100.00
51526;BME280;37611;51.794;21.590;2022-11-20T21:49:02;99307.33;;;-3.03;100.00
51526;BME280;37611;51.794;21.590;2022-11-20T21:53:04;99304.28;;;-3.01;100.00
51526;BME280;37611;51.794;21.590;2022-11-20T21:57:06;99306.45;;;-3.06;100.00
51526;BME280;37611;51.794;21.590;2022-11-20T22:01:16;99305.70;;;-3.08;100.00
51526;BME280;37611;51.794;21.590;2022-11-20T22:05:18;99300.81;;;-3.09;100.00
51526;BME280;37611;51.794;21.590;2022-11-20T22:09:20;99293.98;;;-3.07;100.00
51526;BME280;37611;51.794;21.590;2022-11-20T22:13:24;99295.80;;;-3.02;100.00
51526;BME280;37611;51.794;21.590;2022-11-20T22:17:45;99296.60;;;-2.98;100.00
51526;BME280;37611;51.794;21.590;2022-11-20T22:22:05;99301.37;;;-2.91;100.00
51526;BME280;37611;51.794;21.590;2022-11-20T22:26:10;99298.62;;;-2.91;100.00
51526;BME280;37611;51.794;21.590;2022-11-20T22:30:12;99296.83;;;-2.93;100.00
51526;BME280;37611;51.794;21.590;2022-11-20T22:34:14;99299.60;;;-2.97;100.00
51526;BME280;37611;51.794;21.590;2022-11-20T22:38:16;99298.81;;;-2.95;100.00
51526;BME280;37611;51.794;21.590;2022-11-20T22:42:17;99301.45;;;-2.90;100.00
51526;BME280;37611;51.794;21.590;2022-11-20T22:46:19;99303.98;;;-2.80;100.00
51526;BME280;37611;51.794;21.590;2022-11-20T22:50:21;99305.62;;;-2.72;100.00
51526;BME280;37611;51.794;21.590;2022-11-20T22:54:23;99305.77;;;-2.66;100.00
51526;BME280;37611;51.794;21.590;2022-11-20T22:58:29;99299.18;;;-2.58;100.00
51526;BME280;37611;51.794;21.590;2022-11-20T23:02:31;99289.52;;;-2.57;100.00
51526;BME280;37611;51.794;21.590;2022-11-20T23:06:33;99283.44;;;-2.59;100.00
51526;BME280;37611;51.794;21.590;2022-11-20T23:10:34;99281.52;;;-2.61;100.00
51526;BME280;37611;51.794;21.590;2022-11-20T23:14:36;99284.58;;;-2.55;100.00
51526;BME280;37611;51.794;21.590;2022-11-20T23:18:39;99286.23;;;-2.51;100.00
51526;BME280;37611;51.794;21.590;2022-11-20T23:22:41;99282.84;;;-2.42;100.00
51526;BME280;37611;51.794;21.590;2022-11-20T23:26:43;99290.62;;;-2.34;100.00
51526;BME280;37611;51.794;21.590;2022-11-20T23:30:47;99293.93;;;-2.30;100.00
51526;BME280;37611;51.794;21.590;2022-11-20T23:34:49;99292.56;;;-2.29;100.00
51526;BME280;37611;51.794;21.590;2022-11-20T23:38:51;99288.61;;;-2.29;100.00
51526;BME280;37611;51.794;21.590;2022-11-20T23:42:53;99287.14;;;-2.28;100.00
51526;BME280;37611;51.794;21.590;2022-11-20T23:47:13;99285.08;;;-2.28;100.00
51526;BME280;37611;51.794;21.590;2022-11-20T23:51:15;99282.34;;;-2.25;100.00
51526;BME280;37611;51.794;21.590;2022-11-20T23:55:18;99275.31;;;-2.21;100.00
51526;BME280;37611;51.794;21.590;2022-11-20T23:59:19;99272.06;;;-2.16;100.00
